sensor_id;sensor_type;location;lat;lon;timestamp;pressure;altitude;pressure_sealevel;temperature;humidity
30110;BME280;14965;50.660;13.226;2023-06-26T00:01:40;95077.69;;;16.25;89.12
30110;BME280;14965;50.660;13.226;2023-06-26T00:04:06;95082.03;;;16.26;88.79
30110;BME280;14965;50.660;13.226;2023-06-26T00:06:32;95071.50;;;16.30;88.24
30110;BME280;14965;50.660;13.226;2023-06-26T00:08:59;95079.38;;;16.32;88.28
30110;BME280;14965;50.660;13.226;2023-06-26T00:11:24;95075.31;;;16.33;87.70
30110;BME280;14965;50.660;13.226;2023-06-26T00:13:51;95072.06;;;16.34;87.09
30110;BME280;14965;50.660;13.226;2023-06-26T00:16:17;95073.91;;;16.37;86.73
30110;BME280;14965;50.660;13.226;2023-06-26T00:18:42;95064.63;;;16.40;86.92
30110;BME280;14965;50.660;13.226;2023-06-26T00:21:08;95073.75;;;16.41;86.79
30110;BME280;14965;50.660;13.226;2023-06-26T00:23:34;95068.94;;;16.41;87.19
30110;BME280;14965;50.660;13.226;2023-06-26T00:26:01;95071.28;;;16.43;86.76
30110;BME280;14965;50.660;13.226;2023-06-26T00:28:27;95070.78;;;16.44;86.81
30110;BME280;14965;50.660;13.226;2023-06-26T00:30:53;95065.22;;;16.44;86.46
30110;BME280;14965;50.660;13.226;2023-06-26T00:33:19;95064.72;;;16.46;86.85
30110;BME280;14965;50.660;13.226;2023-06-26T00:35:45;95055.16;;;16.47;87.08
30110;BME280;14965;50.660;13.226;2023-06-26T00:38:11;95057.44;;;16.49;86.98
30110;BME280;14965;50.660;13.226;2023-06-26T00:40:36;95055.44;;;16.49;87.14
30110;BME280;14965;50.660;13.226;2023-06-26T00:43:04;95061.31;;;16.51;86.87
30110;BME280;14965;50.660;13.226;2023-06-26T00:45:29;95057.56;;;16.54;86.60
30110;BME280;14965;50.660;13.226;2023-06-26T00:47:56;95056.31;;;16.55;86.53
30110;BME280;14965;50.660;13.226;2023-06-26T00:50:22;95057.41;;;16.58;86.21
30110;BME280;14965;50.660;13.226;2023-06-26T00:52:48;95057.22;;;16.61;85.89
30110;BME280;14965;50.660;13.226;2023-06-26T00:55:14;95049.63;;;16.62;85.78
30110;BME280;14965;50.660;13.226;2023-06-26T00:57:40;95051.16;;;16.63;85.61
30110;BME280;14965;50.660;13.226;2023-06-26T01:00:09;95044.06;;;16.62;85.49
30110;BME280;14965;50.660;13.226;2023-06-26T01:02:35;95048.25;;;16.57;86.36
30110;BME280;14965;50.660;13.226;2023-06-26T01:08:29;95047.56;;;16.48;86.97
30110;BME280;14965;50.660;13.226;2023-06-26T01:10:55;95039.03;;;16.42;86.98
30110;BME280;14965;50.660;13.226;2023-06-26T01:13:22;95030.09;;;16.38;87.86
30110;BME280;14965;50.660;13.226;2023-06-26T01:15:50;95035.38;;;16.36;87.83
30110;BME280;14965;50.660;13.226;2023-06-26T01:18:17;95026.69;;;16.34;88.44
30110;BME280;14965;50.660;13.226;2023-06-26T01:20:44;95042.38;;;16.31;88.43
30110;BME280;14965;50.660;13.226;2023-06-26T01:23:20;95032.91;;;16.29;88.67
30110;BME280;14965;50.660;13.226;2023-06-26T01:28:51;95035.09;;;16.25;89.26
30110;BME280;14965;50.660;13.226;2023-06-26T01:31:19;95029.53;;;16.25;89.70
30110;BME280;14965;50.660;13.226;2023-06-26T01:33:46;95028.59;;;16.28;89.94
30110;BME280;14965;50.660;13.226;2023-06-26T01:36:13;95026.91;;;16.30;90.12
30110;BME280;14965;50.660;13.226;2023-06-26T01:38:39;95030.72;;;16.33;90.11
30110;BME280;14965;50.660;13.226;2023-06-26T01:41:06;95028.53;;;16.37;89.95
30110;BME280;14965;50.660;13.226;2023-06-26T01:43:43;95022.31;;;16.42;89.52
30110;BME280;14965;50.660;13.226;2023-06-26T01:46:21;95026.00;;;16.48;89.41
30110;BME280;14965;50.660;13.226;2023-06-26T01:48:57;95020.72;;;16.50;89.70
30110;BME280;14965;50.660;13.226;2023-06-26T01:51:31;95012.97;;;16.54;88.75
30110;BME280;14965;50.660;13.226;2023-06-26T01:54:00;95019.13;;;16.58;88.29
30110;BME280;14965;50.660;13.226;2023-06-26T01:56:29;95009.50;;;16.59;88.75
30110;BME280;14965;50.660;13.226;2023-06-26T01:58:56;95011.66;;;16.64;88.23
30110;BME280;14965;50.660;13.226;2023-06-26T02:01:23;95018.13;;;16.71;87.57
30110;BME280;14965;50.660;13.226;2023-06-26T02:03:50;95011.16;;;16.75;87.01
30110;BME280;14965;50.660;13.226;2023-06-26T02:06:15;95014.53;;;16.79;86.70
30110;BME280;14965;50.660;13.226;2023-06-26T02:08:42;95008.78;;;16.83;86.73
30110;BME280;14965;50.660;13.226;2023-06-26T02:11:08;95000.72;;;16.85;86.48
30110;BME280;14965;50.660;13.226;2023-06-26T02:13:33;95004.25;;;16.85;86.57
30110;BME280;14965;50.660;13.226;2023-06-26T02:15:59;95003.50;;;16.85;86.04
30110;BME280;14965;50.660;13.226;2023-06-26T02:18:26;95003.50;;;16.85;86.34
30110;BME280;14965;50.660;13.226;2023-06-26T02:20:52;95001.94;;;16.84;86.63
30110;BME280;14965;50.660;13.226;2023-06-26T02:23:18;95002.13;;;16.80;86.31
30110;BME280;14965;50.660;13.226;2023-06-26T02:25:44;95003.38;;;16.79;86.37
30110;BME280;14965;50.660;13.226;2023-06-26T02:28:10;95006.91;;;16.80;85.93
30110;BME280;14965;50.660;13.226;2023-06-26T02:30:35;95005.22;;;16.82;85.74
30110;BME280;14965;50.660;13.226;2023-06-26T02:33:01;94999.63;;;16.82;85.51
30110;BME280;14965;50.660;13.226;2023-06-26T02:35:28;94998.09;;;16.81;85.24
30110;BME280;14965;50.660;13.226;2023-06-26T02:37:54;95004.44;;;16.82;85.34
30110;BME280;14965;50.660;13.226;2023-06-26T02:40:20;95001.34;;;16.80;85.83
30110;BME280;14965;50.660;13.226;2023-06-26T02:42:46;94997.50;;;16.77;85.89
30110;BME280;14965;50.660;13.226;2023-06-26T02:45:12;94996.25;;;16.78;85.55
30110;BME280;14965;50.660;13.226;2023-06-26T02:47:38;94993.47;;;16.78;85.55
30110;BME280;14965;50.660;13.226;2023-06-26T02:50:05;94999.31;;;16.80;85.42
30110;BME280;14965;50.660;13.226;2023-06-26T02:52:32;95001.66;;;16.82;85.00
30110;BME280;14965;50.660;13.226;2023-06-26T02:54:58;94999.16;;;16.84;85.07
30110;BME280;14965;50.660;13.226;2023-06-26T02:57:24;95002.53;;;16.88;84.61
30110;BME280;14965;50.660;13.226;2023-06-26T02:59:49;94996.00;;;16.91;84.54
30110;BME280;14965;50.660;13.226;2023-06-26T03:02:15;94992.25;;;16.94;84.38
30110;BME280;14965;50.660;13.226;2023-06-26T03:04:41;94990.72;;;16.93;84.68
30110;BME280;14965;50.660;13.226;2023-06-26T03:07:07;94993.53;;;16.93;84.51
30110;BME280;14965;50.660;13.226;2023-06-26T03:09:34;94992.09;;;16.98;84.32
30110;BME280;14965;50.660;13.226;2023-06-26T03:12:00;94992.66;;;17.02;83.84
30110;BME280;14965;50.660;13.226;2023-06-26T03:14:26;94989.66;;;17.05;83.44
30110;BME280;14965;50.660;13.226;2023-06-26T03:16:52;94987.19;;;17.07;83.33
30110;BME280;14965;50.660;13.226;2023-06-26T03:19:18;94984.69;;;17.09;83.43
30110;BME280;14965;50.660;13.226;2023-06-26T03:21:44;94982.19;;;17.11;83.20
30110;BME280;14965;50.660;13.226;2023-06-26T03:24:10;94982.00;;;17.15;82.95
30110;BME280;14965;50.660;13.226;2023-06-26T03:26:37;94984.31;;;17.16;82.98
30110;BME280;14965;50.660;13.226;2023-06-26T03:29:03;94989.72;;;17.20;82.72
30110;BME280;14965;50.660;13.226;2023-06-26T03:31:29;94987.19;;;17.22;82.78
30110;BME280;14965;50.660;13.226;2023-06-26T03:33:55;94982.19;;;17.26;82.56
30110;BME280;14965;50.660;13.226;2023-06-26T03:36:21;94992.41;;;17.29;82.53
30110;BME280;14965;50.660;13.226;2023-06-26T03:38:46;94979.03;;;17.33;82.43
30110;BME280;14965;50.660;13.226;2023-06-26T03:41:12;94987.22;;;17.37;81.80
30110;BME280;14965;50.660;13.226;2023-06-26T03:43:39;94987.63;;;17.45;81.81
30110;BME280;14965;50.660;13.226;2023-06-26T03:46:05;94983.97;;;17.53;80.99
30110;BME280;14965;50.660;13.226;2023-06-26T03:48:31;94976.44;;;17.59;80.47
30110;BME280;14965;50.660;13.226;2023-06-26T03:50:57;94980.09;;;17.65;80.14
30110;BME280;14965;50.660;13.226;2023-06-26T03:53:23;94978.94;;;17.72;79.85
30110;BME280;14965;50.660;13.226;2023-06-26T03:55:49;94970.38;;;17.76;79.46
30110;BME280;14965;50.660;13.226;2023-06-26T03:58:15;94979.34;;;17.80;79.27
30110;BME280;14965;50.660;13.226;2023-06-26T04:00:42;94979.63;;;17.82;79.15
30110;BME280;14965;50.660;13.226;2023-06-26T04:03:08;94973.88;;;17.85;78.72
30110;BME280;14965;50.660;13.226;2023-06-26T04:05:34;94973.16;;;17.90;78.58
30110;BME280;14965;50.660;13.226;2023-06-26T04:08:00;94966.63;;;17.94;78.93
30110;BME280;14965;50.660;13.226;2023-06-26T04:10:26;94965.16;;;17.98;78.38
30110;BME280;14965;50.660;13.226;2023-06-26T04:12:52;94968.34;;;18.06;78.58
30110;BME280;14965;50.660;13.226;2023-06-26T04:15:17;94969.44;;;18.14;77.96
30110;BME280;14965;50.660;13.226;2023-06-26T04:17:45;94959.69;;;18.24;77.83
30110;BME280;14965;50.660;13.226;2023-06-26T04:20:11;94968.00;;;18.39;77.32
30110;BME280;14965;50.660;13.226;2023-06-26T04:22:36;94961.41;;;18.57;76.84
30110;BME280;14965;50.660;13.226;2023-06-26T04:25:04;94965.69;;;18.93;74.88
30110;BME280;14965;50.660;13.226;2023-06-26T04:27:31;94968.56;;;19.51;72.66
30110;BME280;14965;50.660;13.226;2023-06-26T04:29:57;94951.78;;;21.11;66.26
30110;BME280;14965;50.660;13.226;2023-06-26T04:32:23;94947.94;;;22.82;58.35
30110;BME280;14965;50.660;13.226;2023-06-26T04:34:50;94948.31;;;23.97;52.98
30110;BME280;14965;50.660;13.226;2023-06-26T04:37:16;94948.88;;;23.90;52.56
30110;BME280;14965;50.660;13.226;2023-06-26T04:39:42;94953.56;;;23.35;54.24
30110;BME280;14965;50.660;13.226;2023-06-26T04:42:08;94953.13;;;22.61;55.80
30110;BME280;14965;50.660;13.226;2023-06-26T04:44:34;94959.09;;;22.13;58.03
30110;BME280;14965;50.660;13.226;2023-06-26T04:46:59;94949.88;;;22.18;57.07
30110;BME280;14965;50.660;13.226;2023-06-26T04:49:25;94958.28;;;22.01;57.87
30110;BME280;14965;50.660;13.226;2023-06-26T04:51:53;94963.66;;;21.66;59.25
30110;BME280;14965;50.660;13.226;2023-06-26T04:54:19;94956.22;;;21.57;59.58
30110;BME280;14965;50.660;13.226;2023-06-26T04:56:45;94953.91;;;21.44;60.04
30110;BME280;14965;50.660;13.226;2023-06-26T04:59:10;94954.91;;;21.35;60.66
30110;BME280;14965;50.660;13.226;2023-06-26T05:01:37;94953.41;;;21.46;61.89
30110;BME280;14965;50.660;13.226;2023-06-26T05:04:03;94954.69;;;21.50;61.62
30110;BME280;14965;50.660;13.226;2023-06-26T05:06:29;94956.22;;;21.46;61.86
30110;BME280;14965;50.660;13.226;2023-06-26T05:08:56;94951.63;;;21.43;62.93
30110;BME280;14965;50.660;13.226;2023-06-26T05:11:22;94949.34;;;21.80;61.99
30110;BME280;14965;50.660;13.226;2023-06-26T05:13:48;94948.50;;;22.64;57.44
30110;BME280;14965;50.660;13.226;2023-06-26T05:16:14;94943.38;;;22.62;57.22
30110;BME280;14965;50.660;13.226;2023-06-26T05:18:40;94940.13;;;22.42;59.88
30110;BME280;14965;50.660;13.226;2023-06-26T05:21:06;94945.25;;;22.15;59.52
30110;BME280;14965;50.660;13.226;2023-06-26T05:23:33;94944.22;;;22.07;61.48
30110;BME280;14965;50.660;13.226;2023-06-26T05:26:02;94941.31;;;22.69;60.12
30110;BME280;14965;50.660;13.226;2023-06-26T05:28:30;94937.81;;;23.56;56.87
30110;BME280;14965;50.660;13.226;2023-06-26T05:30:56;94931.09;;;24.80;54.14
30110;BME280;14965;50.660;13.226;2023-06-26T05:33:26;94926.16;;;26.13;49.24
30110;BME280;14965;50.660;13.226;2023-06-26T05:35:53;94929.28;;;25.77;49.83
30110;BME280;14965;50.660;13.226;2023-06-26T05:38:20;94922.66;;;25.18;51.24
30110;BME280;14965;50.660;13.226;2023-06-26T05:40:46;94922.97;;;25.33;51.81
30110;BME280;14965;50.660;13.226;2023-06-26T05:43:15;94925.63;;;25.44;49.33
30110;BME280;14965;50.660;13.226;2023-06-26T05:45:41;94930.03;;;25.96;49.55
30110;BME280;14965;50.660;13.226;2023-06-26T05:48:07;94926.88;;;26.98;45.98
30110;BME280;14965;50.660;13.226;2023-06-26T05:50:34;94917.06;;;27.13;45.30
30110;BME280;14965;50.660;13.226;2023-06-26T05:53:00;94914.69;;;28.06;44.47
30110;BME280;14965;50.660;13.226;2023-06-26T05:55:27;94911.03;;;29.41;41.58
30110;BME280;14965;50.660;13.226;2023-06-26T05:57:56;94919.38;;;30.67;38.84
30110;BME280;14965;50.660;13.226;2023-06-26T06:00:26;94909.88;;;31.50;36.65
30110;BME280;14965;50.660;13.226;2023-06-26T06:02:53;94913.56;;;32.09;35.46
30110;BME280;14965;50.660;13.226;2023-06-26T06:05:18;94905.47;;;32.47;34.01
30110;BME280;14965;50.660;13.226;2023-06-26T06:07:44;94909.97;;;32.76;34.11
30110;BME280;14965;50.660;13.226;2023-06-26T06:10:10;94908.56;;;32.84;33.07
30110;BME280;14965;50.660;13.226;2023-06-26T06:12:36;94905.28;;;32.70;33.63
30110;BME280;14965;50.660;13.226;2023-06-26T06:15:02;94907.91;;;32.93;33.85
30110;BME280;14965;50.660;13.226;2023-06-26T06:17:29;94910.84;;;32.86;32.62
30110;BME280;14965;50.660;13.226;2023-06-26T06:19:55;94894.31;;;32.59;32.33
30110;BME280;14965;50.660;13.226;2023-06-26T06:22:21;94902.13;;;32.59;33.48
30110;BME280;14965;50.660;13.226;2023-06-26T06:24:49;94892.13;;;32.67;32.90
30110;BME280;14965;50.660;13.226;2023-06-26T06:27:16;94899.56;;;32.70;32.31
30110;BME280;14965;50.660;13.226;2023-06-26T06:29:42;94904.47;;;32.95;33.18
30110;BME280;14965;50.660;13.226;2023-06-26T06:32:08;94908.25;;;33.15;32.74
30110;BME280;14965;50.660;13.226;2023-06-26T06:34:35;94906.41;;;33.10;32.37
30110;BME280;14965;50.660;13.226;2023-06-26T06:37:02;94903.66;;;33.19;32.28
30110;BME280;14965;50.660;13.226;2023-06-26T06:39:29;94904.72;;;33.24;30.72
30110;BME280;14965;50.660;13.226;2023-06-26T06:41:55;94895.63;;;33.35;31.18
30110;BME280;14965;50.660;13.226;2023-06-26T06:44:21;94899.50;;;33.13;32.38
30110;BME280;14965;50.660;13.226;2023-06-26T06:46:47;94899.03;;;33.07;32.08
30110;BME280;14965;50.660;13.226;2023-06-26T06:49:13;94898.34;;;32.99;31.33
30110;BME280;14965;50.660;13.226;2023-06-26T06:51:40;94897.41;;;32.96;32.04
30110;BME280;14965;50.660;13.226;2023-06-26T06:54:06;94904.22;;;33.01;32.41
30110;BME280;14965;50.660;13.226;2023-06-26T06:56:32;94895.03;;;33.02;32.33
30110;BME280;14965;50.660;13.226;2023-06-26T06:58:58;94897.41;;;32.54;32.77
30110;BME280;14965;50.660;13.226;2023-06-26T07:01:24;94897.53;;;31.48;32.63
30110;BME280;14965;50.660;13.226;2023-06-26T07:03:49;94898.47;;;30.80;34.71
30110;BME280;14965;50.660;13.226;2023-06-26T07:06:15;94897.00;;;30.40;36.22
30110;BME280;14965;50.660;13.226;2023-06-26T07:08:42;94903.34;;;29.72;37.00
30110;BME280;14965;50.660;13.226;2023-06-26T07:11:09;94900.13;;;29.16;38.37
30110;BME280;14965;50.660;13.226;2023-06-26T07:13:35;94891.16;;;28.76;39.18
30110;BME280;14965;50.660;13.226;2023-06-26T07:16:00;94891.09;;;27.90;38.85
30110;BME280;14965;50.660;13.226;2023-06-26T07:18:26;94898.91;;;27.42;40.94
30110;BME280;14965;50.660;13.226;2023-06-26T07:20:52;94895.97;;;27.69;41.09
30110;BME280;14965;50.660;13.226;2023-06-26T07:23:18;94896.47;;;28.72;39.03
30110;BME280;14965;50.660;13.226;2023-06-26T07:25:45;94889.06;;;28.97;39.58
30110;BME280;14965;50.660;13.226;2023-06-26T07:28:11;94899.56;;;28.53;40.29
30110;BME280;14965;50.660;13.226;2023-06-26T07:30:38;94896.84;;;27.64;40.71
30110;BME280;14965;50.660;13.226;2023-06-26T07:33:04;94896.88;;;27.16;42.99
30110;BME280;14965;50.660;13.226;2023-06-26T07:35:30;94904.44;;;27.14;45.19
30110;BME280;14965;50.660;13.226;2023-06-26T07:37:56;94899.09;;;26.97;44.39
30110;BME280;14965;50.660;13.226;2023-06-26T07:40:22;94904.00;;;26.96;44.49
30110;BME280;14965;50.660;13.226;2023-06-26T07:42:49;94903.22;;;27.09;44.77
30110;BME280;14965;50.660;13.226;2023-06-26T07:45:15;94901.38;;;27.12;45.61
30110;BME280;14965;50.660;13.226;2023-06-26T07:47:41;94909.09;;;27.11;45.95
30110;BME280;14965;50.660;13.226;2023-06-26T07:50:07;94898.53;;;26.98;45.47
30110;BME280;14965;50.660;13.226;2023-06-26T07:52:34;94905.63;;;27.18;45.97
30110;BME280;14965;50.660;13.226;2023-06-26T07:55:00;94898.09;;;27.55;44.21
30110;BME280;14965;50.660;13.226;2023-06-26T07:57:34;94900.75;;;27.74;43.06
30110;BME280;14965;50.660;13.226;2023-06-26T08:00:01;94892.66;;;27.99;42.79
30110;BME280;14965;50.660;13.226;2023-06-26T08:02:28;94894.53;;;28.67;43.23
30110;BME280;14965;50.660;13.226;2023-06-26T08:04:54;94895.53;;;29.06;40.67
30110;BME280;14965;50.660;13.226;2023-06-26T08:07:19;94894.94;;;28.99;39.59
30110;BME280;14965;50.660;13.226;2023-06-26T08:09:45;94894.78;;;28.76;41.62
30110;BME280;14965;50.660;13.226;2023-06-26T08:12:11;94888.84;;;28.38;41.53
30110;BME280;14965;50.660;13.226;2023-06-26T08:14:37;94892.00;;;27.85;41.87
30110;BME280;14965;50.660;13.226;2023-06-26T08:17:04;94890.47;;;27.84;44.74
30110;BME280;14965;50.660;13.226;2023-06-26T08:19:30;94884.75;;;28.26;45.06
30110;BME280;14965;50.660;13.226;2023-06-26T08:21:56;94876.06;;;28.81;42.87
30110;BME280;14965;50.660;13.226;2023-06-26T08:24:22;94885.25;;;29.46;41.54
30110;BME280;14965;50.660;13.226;2023-06-26T08:26:48;94884.72;;;29.56;40.60
30110;BME280;14965;50.660;13.226;2023-06-26T08:29:14;94879.75;;;28.97;40.26
30110;BME280;14965;50.660;13.226;2023-06-26T08:31:42;94875.78;;;28.14;40.69
30110;BME280;14965;50.660;13.226;2023-06-26T08:34:09;94878.28;;;27.76;42.92
30110;BME280;14965;50.660;13.226;2023-06-26T08:36:35;94879.81;;;27.77;43.30
30110;BME280;14965;50.660;13.226;2023-06-26T08:39:02;94866.59;;;28.29;41.78
30110;BME280;14965;50.660;13.226;2023-06-26T08:41:28;94869.88;;;28.62;40.80
30110;BME280;14965;50.660;13.226;2023-06-26T08:43:54;94866.31;;;29.05;40.61
30110;BME280;14965;50.660;13.226;2023-06-26T08:46:20;94871.78;;;29.39;40.12
30110;BME280;14965;50.660;13.226;2023-06-26T08:48:54;94863.34;;;29.85;39.45
30110;BME280;14965;50.660;13.226;2023-06-26T08:51:25;94868.13;;;30.36;37.40
30110;BME280;14965;50.660;13.226;2023-06-26T08:53:57;94869.25;;;30.41;38.27
30110;BME280;14965;50.660;13.226;2023-06-26T08:56:28;94874.34;;;29.96;39.73
30110;BME280;14965;50.660;13.226;2023-06-26T08:58:57;94864.47;;;28.79;39.55
30110;BME280;14965;50.660;13.226;2023-06-26T09:01:24;94875.88;;;27.80;40.83
30110;BME280;14965;50.660;13.226;2023-06-26T09:03:51;94886.09;;;27.15;42.90
30110;BME280;14965;50.660;13.226;2023-06-26T09:06:17;94876.75;;;26.67;43.74
30110;BME280;14965;50.660;13.226;2023-06-26T09:08:44;94880.69;;;26.64;43.65
30110;BME280;14965;50.660;13.226;2023-06-26T09:11:10;94868.19;;;27.20;43.18
30110;BME280;14965;50.660;13.226;2023-06-26T09:13:37;94870.19;;;27.80;42.26
30110;BME280;14965;50.660;13.226;2023-06-26T09:16:06;94867.97;;;27.86;40.61
30110;BME280;14965;50.660;13.226;2023-06-26T09:18:32;94874.97;;;27.85;42.16
30110;BME280;14965;50.660;13.226;2023-06-26T09:20:58;94866.41;;;28.27;40.22
30110;BME280;14965;50.660;13.226;2023-06-26T09:23:24;94858.78;;;28.79;40.16
30110;BME280;14965;50.660;13.226;2023-06-26T09:25:53;94866.28;;;28.61;37.39
30110;BME280;14965;50.660;13.226;2023-06-26T09:28:19;94855.56;;;28.46;40.22
30110;BME280;14965;50.660;13.226;2023-06-26T09:30:45;94861.91;;;28.60;40.10
30110;BME280;14965;50.660;13.226;2023-06-26T09:33:15;94861.13;;;28.31;40.90
30110;BME280;14965;50.660;13.226;2023-06-26T09:35:41;94862.47;;;28.09;42.00
30110;BME280;14965;50.660;13.226;2023-06-26T09:38:07;94863.16;;;28.23;43.41
30110;BME280;14965;50.660;13.226;2023-06-26T09:40:33;94864.91;;;28.54;42.70
30110;BME280;14965;50.660;13.226;2023-06-26T09:43:04;94866.94;;;28.46;40.69
30110;BME280;14965;50.660;13.226;2023-06-26T09:45:31;94861.22;;;28.18;42.55
30110;BME280;14965;50.660;13.226;2023-06-26T09:48:00;94860.53;;;27.83;40.89
30110;BME280;14965;50.660;13.226;2023-06-26T09:50:26;94858.19;;;27.95;42.85
30110;BME280;14965;50.660;13.226;2023-06-26T09:52:52;94845.03;;;28.34;40.49
30110;BME280;14965;50.660;13.226;2023-06-26T09:55:19;94855.13;;;28.71;40.01
30110;BME280;14965;50.660;13.226;2023-06-26T09:57:47;94850.75;;;28.98;38.86
30110;BME280;14965;50.660;13.226;2023-06-26T10:00:16;94852.97;;;29.36;38.69
30110;BME280;14965;50.660;13.226;2023-06-26T10:02:42;94844.34;;;29.65;38.70
30110;BME280;14965;50.660;13.226;2023-06-26T10:05:07;94847.78;;;29.86;36.78
30110;BME280;14965;50.660;13.226;2023-06-26T10:07:35;94844.94;;;29.94;37.09
30110;BME280;14965;50.660;13.226;2023-06-26T10:10:02;94853.88;;;30.29;37.64
30110;BME280;14965;50.660;13.226;2023-06-26T10:12:30;94840.16;;;30.65;36.92
30110;BME280;14965;50.660;13.226;2023-06-26T10:14:57;94844.38;;;29.95;34.74
30110;BME280;14965;50.660;13.226;2023-06-26T10:17:28;94849.09;;;29.11;38.33
30110;BME280;14965;50.660;13.226;2023-06-26T10:19:58;94844.34;;;28.69;39.99
30110;BME280;14965;50.660;13.226;2023-06-26T10:22:29;94841.97;;;28.52;39.59
30110;BME280;14965;50.660;13.226;2023-06-26T10:24:59;94840.06;;;28.47;41.18
30110;BME280;14965;50.660;13.226;2023-06-26T10:27:33;94838.03;;;28.56;40.52
30110;BME280;14965;50.660;13.226;2023-06-26T10:30:08;94840.59;;;28.46;38.61
30110;BME280;14965;50.660;13.226;2023-06-26T10:32:37;94834.38;;;28.47;38.64
30110;BME280;14965;50.660;13.226;2023-06-26T10:35:06;94830.53;;;28.73;38.66
30110;BME280;14965;50.660;13.226;2023-06-26T10:37:43;94823.59;;;28.90;36.44
30110;BME280;14965;50.660;13.226;2023-06-26T10:40:09;94828.72;;;28.91;37.21
30110;BME280;14965;50.660;13.226;2023-06-26T10:42:38;94827.28;;;29.06;38.29
30110;BME280;14965;50.660;13.226;2023-06-26T10:45:13;94822.97;;;29.20;40.68
30110;BME280;14965;50.660;13.226;2023-06-26T10:47:44;94823.88;;;29.07;36.84
30110;BME280;14965;50.660;13.226;2023-06-26T10:50:23;94816.50;;;28.75;34.93
30110;BME280;14965;50.660;13.226;2023-06-26T10:53:14;94809.94;;;28.88;38.41
30110;BME280;14965;50.660;13.226;2023-06-26T10:55:48;94821.91;;;28.94;40.62
30110;BME280;14965;50.660;13.226;2023-06-26T10:58:34;94811.56;;;29.12;35.88
30110;BME280;14965;50.660;13.226;2023-06-26T11:01:17;94807.56;;;29.08;34.70
30110;BME280;14965;50.660;13.226;2023-06-26T11:03:47;94813.84;;;29.06;35.74
30110;BME280;14965;50.660;13.226;2023-06-26T11:06:14;94817.16;;;28.89;36.08
30110;BME280;14965;50.660;13.226;2023-06-26T11:08:45;94804.13;;;28.58;37.01
30110;BME280;14965;50.660;13.226;2023-06-26T11:11:11;94810.91;;;28.47;37.51
30110;BME280;14965;50.660;13.226;2023-06-26T11:13:37;94812.63;;;28.58;37.27
30110;BME280;14965;50.660;13.226;2023-06-26T11:16:05;94796.78;;;28.70;37.53
30110;BME280;14965;50.660;13.226;2023-06-26T11:18:31;94788.78;;;29.04;35.41
30110;BME280;14965;50.660;13.226;2023-06-26T11:21:06;94786.03;;;29.35;35.17
30110;BME280;14965;50.660;13.226;2023-06-26T11:23:34;94798.44;;;29.61;35.64
30110;BME280;14965;50.660;13.226;2023-06-26T11:26:17;94798.41;;;29.76;36.64
30110;BME280;14965;50.660;13.226;2023-06-26T11:28:48;94800.13;;;29.64;33.15
30110;BME280;14965;50.660;13.226;2023-06-26T11:31:27;94793.06;;;29.49;33.65
30110;BME280;14965;50.660;13.226;2023-06-26T11:33:54;94794.56;;;29.43;35.91
30110;BME280;14965;50.660;13.226;2023-06-26T11:36:23;94788.13;;;29.50;35.73
30110;BME280;14965;50.660;13.226;2023-06-26T11:38:53;94791.03;;;29.58;36.07
30110;BME280;14965;50.660;13.226;2023-06-26T11:41:19;94784.00;;;29.59;37.06
30110;BME280;14965;50.660;13.226;2023-06-26T11:43:45;94784.97;;;29.69;34.14
30110;BME280;14965;50.660;13.226;2023-06-26T11:46:10;94789.13;;;29.60;35.24
30110;BME280;14965;50.660;13.226;2023-06-26T11:48:37;94787.97;;;29.56;33.66
30110;BME280;14965;50.660;13.226;2023-06-26T11:51:04;94787.41;;;29.57;35.08
30110;BME280;14965;50.660;13.226;2023-06-26T11:53:39;94754.94;;;29.52;34.29
30110;BME280;14965;50.660;13.226;2023-06-26T11:56:09;94772.94;;;29.32;34.32
30110;BME280;14965;50.660;13.226;2023-06-26T11:58:34;94773.88;;;29.27;34.99
30110;BME280;14965;50.660;13.226;2023-06-26T12:01:00;94778.16;;;29.05;35.75
30110;BME280;14965;50.660;13.226;2023-06-26T12:03:26;94769.69;;;28.69;35.17
30110;BME280;14965;50.660;13.226;2023-06-26T12:05:52;94775.31;;;28.53;35.42
30110;BME280;14965;50.660;13.226;2023-06-26T12:08:19;94760.53;;;28.55;35.28
30110;BME280;14965;50.660;13.226;2023-06-26T12:10:47;94760.47;;;28.40;37.42
30110;BME280;14965;50.660;13.226;2023-06-26T12:13:13;94765.88;;;28.30;37.02
30110;BME280;14965;50.660;13.226;2023-06-26T12:15:39;94770.25;;;28.31;40.22
30110;BME280;14965;50.660;13.226;2023-06-26T12:18:08;94766.06;;;28.32;35.89
30110;BME280;14965;50.660;13.226;2023-06-26T12:20:40;94763.91;;;28.17;37.15
30110;BME280;14965;50.660;13.226;2023-06-26T12:23:12;94775.13;;;27.94;37.99
30110;BME280;14965;50.660;13.226;2023-06-26T12:25:38;94767.28;;;27.87;35.74
30110;BME280;14965;50.660;13.226;2023-06-26T12:28:16;94755.59;;;27.91;37.52
30110;BME280;14965;50.660;13.226;2023-06-26T12:30:46;94764.94;;;27.99;37.52
30110;BME280;14965;50.660;13.226;2023-06-26T12:33:14;94754.03;;;27.82;35.11
30110;BME280;14965;50.660;13.226;2023-06-26T12:35:40;94755.19;;;27.87;35.89
30110;BME280;14965;50.660;13.226;2023-06-26T12:38:07;94757.56;;;28.03;38.30
30110;BME280;14965;50.660;13.226;2023-06-26T12:40:33;94755.50;;;28.04;39.29
30110;BME280;14965;50.660;13.226;2023-06-26T12:42:59;94753.81;;;28.09;36.63
30110;BME280;14965;50.660;13.226;2023-06-26T12:45:26;94751.00;;;27.80;36.58
30110;BME280;14965;50.660;13.226;2023-06-26T12:47:52;94744.81;;;27.68;37.12
30110;BME280;14965;50.660;13.226;2023-06-26T12:50:18;94754.94;;;27.77;36.20
30110;BME280;14965;50.660;13.226;2023-06-26T12:52:44;94741.22;;;27.89;37.11
30110;BME280;14965;50.660;13.226;2023-06-26T12:55:10;94741.56;;;27.85;39.05
30110;BME280;14965;50.660;13.226;2023-06-26T12:57:36;94741.28;;;27.75;36.08